sensor_id;sensor_type;location;lat;lon;timestamp;pressure;altitude;pressure_sealevel;temperature;humidity
70323;BME280;57735;56.264;43.898;2023-09-07T00:01:34;100458.19;;;8.20;86.19
70323;BME280;57735;56.264;43.898;2023-09-07T00:04:05;100450.47;;;8.17;86.02
70323;BME280;57735;56.264;43.898;2023-09-07T00:06:40;100452.56;;;8.14;86.47
70323;BME280;57735;56.264;43.898;2023-09-07T00:09:11;100456.19;;;8.13;86.61
70323;BME280;57735;56.264;43.898;2023-09-07T00:11:44;100452.13;;;8.09;86.93
70323;BME280;57735;56.264;43.898;2023-09-07T00:14:15;100459.38;;;8.06;86.86
70323;BME280;57735;56.264;43.898;2023-09-07T00:16:49;100451.72;;;8.03;86.74
70323;BME280;57735;56.264;43.898;2023-09-07T00:19:20;100462.34;;;8.03;86.72
70323;BME280;57735;56.264;43.898;2023-09-07T00:21:53;100459.09;;;8.00;86.68
70323;BME280;57735;56.264;43.898;2023-09-07T00:24:24;100469.97;;;7.97;86.91
70323;BME280;57735;56.264;43.898;2023-09-07T00:26:55;100470.81;;;7.97;86.95
70323;BME280;57735;56.264;43.898;2023-09-07T00:29:28;100462.41;;;7.92;87.07
70323;BME280;57735;56.264;43.898;2023-09-07T00:31:59;100470.38;;;7.92;86.90
70323;BME280;57735;56.264;43.898;2023-09-07T00:34:29;100473.44;;;7.88;87.13
70323;BME280;57735;56.264;43.898;2023-09-07T00:37:00;100475.28;;;7.87;87.17
70323;BME280;57735;56.264;43.898;2023-09-07T00:39:32;100461.28;;;7.85;87.40
70323;BME280;57735;56.264;43.898;2023-09-07T00:42:03;100459.75;;;7.83;87.21
70323;BME280;57735;56.264;43.898;2023-09-07T00:44:34;100471.19;;;7.83;87.52
70323;BME280;57735;56.264;43.898;2023-09-07T00:47:05;100466.16;;;7.80;87.53
70323;BME280;57735;56.264;43.898;2023-09-07T00:49:35;100465.31;;;7.80;87.51
70323;BME280;57735;56.264;43.898;2023-09-07T00:52:08;100470.75;;;7.78;87.64
70323;BME280;57735;56.264;43.898;2023-09-07T00:54:39;100474.38;;;7.77;87.76
70323;BME280;57735;56.264;43.898;2023-09-07T00:57:13;100476.31;;;7.75;87.88
70323;BME280;57735;56.264;43.898;2023-09-07T00:59:44;100488.88;;;7.73;87.71
70323;BME280;57735;56.264;43.898;2023-09-07T01:02:15;100466.94;;;7.71;87.84
70323;BME280;57735;56.264;43.898;2023-09-07T01:04:45;100466.25;;;7.69;87.85
70323;BME280;57735;56.264;43.898;2023-09-07T01:07:26;100464.56;;;7.68;87.71
70323;BME280;57735;56.264;43.898;2023-09-07T01:10:03;100472.25;;;7.71;88.28
70323;BME280;57735;56.264;43.898;2023-09-07T01:12:37;100475.34;;;7.76;88.50
70323;BME280;57735;56.264;43.898;2023-09-07T01:15:08;100473.13;;;7.81;88.31
70323;BME280;57735;56.264;43.898;2023-09-07T01:17:41;100470.94;;;7.86;88.17
70323;BME280;57735;56.264;43.898;2023-09-07T01:20:16;100470.63;;;7.89;87.58
70323;BME280;57735;56.264;43.898;2023-09-07T01:22:51;100474.00;;;7.91;87.42
70323;BME280;57735;56.264;43.898;2023-09-07T01:25:22;100468.56;;;7.93;87.20
70323;BME280;57735;56.264;43.898;2023-09-07T01:27:56;100477.56;;;8.01;87.30
70323;BME280;57735;56.264;43.898;2023-09-07T01:30:27;100470.13;;;8.05;87.12
70323;BME280;57735;56.264;43.898;2023-09-07T01:33:02;100477.97;;;8.06;86.84
70323;BME280;57735;56.264;43.898;2023-09-07T01:35:34;100467.34;;;8.06;86.57
70323;BME280;57735;56.264;43.898;2023-09-07T01:38:05;100463.72;;;8.07;86.35
70323;BME280;57735;56.264;43.898;2023-09-07T01:40:36;100469.88;;;8.08;86.31
70323;BME280;57735;56.264;43.898;2023-09-07T01:43:09;100470.56;;;8.10;86.34
70323;BME280;57735;56.264;43.898;2023-09-07T01:45:43;100472.69;;;8.16;86.75
70323;BME280;57735;56.264;43.898;2023-09-07T01:48:14;100470.75;;;8.18;86.24
70323;BME280;57735;56.264;43.898;2023-09-07T01:50:45;100473.94;;;8.22;85.93
70323;BME280;57735;56.264;43.898;2023-09-07T01:53:18;100480.94;;;8.23;85.58
70323;BME280;57735;56.264;43.898;2023-09-07T01:55:49;100479.00;;;8.25;85.92
70323;BME280;57735;56.264;43.898;2023-09-07T01:58:22;100484.16;;;8.26;85.42
70323;BME280;57735;56.264;43.898;2023-09-07T02:00:58;100488.66;;;8.26;85.43
70323;BME280;57735;56.264;43.898;2023-09-07T02:03:31;100491.31;;;8.26;85.49
70323;BME280;57735;56.264;43.898;2023-09-07T02:06:02;100485.97;;;8.26;85.29
70323;BME280;57735;56.264;43.898;2023-09-07T02:08:33;100492.97;;;8.27;85.60
70323;BME280;57735;56.264;43.898;2023-09-07T02:11:08;100488.50;;;8.27;85.23
70323;BME280;57735;56.264;43.898;2023-09-07T02:13:42;100502.63;;;8.28;85.14
70323;BME280;57735;56.264;43.898;2023-09-07T02:16:15;100498.03;;;8.30;85.12
70323;BME280;57735;56.264;43.898;2023-09-07T02:18:59;100493.44;;;8.32;84.84
70323;BME280;57735;56.264;43.898;2023-09-07T02:21:33;100496.94;;;8.32;84.92
70323;BME280;57735;56.264;43.898;2023-09-07T02:24:04;100509.13;;;8.35;84.80
70323;BME280;57735;56.264;43.898;2023-09-07T02:26:35;100509.13;;;8.35;84.75
70323;BME280;57735;56.264;43.898;2023-09-07T02:29:09;100503.69;;;8.36;84.67
70323;BME280;57735;56.264;43.898;2023-09-07T02:31:40;100508.56;;;8.41;84.38
70323;BME280;57735;56.264;43.898;2023-09-07T02:34:11;100512.19;;;8.40;84.16
70323;BME280;57735;56.264;43.898;2023-09-07T02:36:42;100517.50;;;8.40;84.08
70323;BME280;57735;56.264;43.898;2023-09-07T02:39:13;100515.81;;;8.39;84.18
70323;BME280;57735;56.264;43.898;2023-09-07T02:41:46;100524.22;;;8.44;84.43
70323;BME280;57735;56.264;43.898;2023-09-07T02:44:17;100517.81;;;8.47;84.28
70323;BME280;57735;56.264;43.898;2023-09-07T02:46:48;100526.50;;;8.49;84.33
70323;BME280;57735;56.264;43.898;2023-09-07T02:49:18;100537.09;;;8.49;83.92
70323;BME280;57735;56.264;43.898;2023-09-07T02:51:49;100522.84;;;8.50;84.12
70323;BME280;57735;56.264;43.898;2023-09-07T02:54:23;100536.00;;;8.51;84.01
70323;BME280;57735;56.264;43.898;2023-09-07T02:56:56;100540.22;;;8.54;83.78
70323;BME280;57735;56.264;43.898;2023-09-07T02:59:27;100532.25;;;8.54;83.90
70323;BME280;57735;56.264;43.898;2023-09-07T03:01:57;100532.06;;;8.55;83.69
70323;BME280;57735;56.264;43.898;2023-09-07T03:04:28;100528.44;;;8.56;83.65
70323;BME280;57735;56.264;43.898;2023-09-07T03:07:00;100539.06;;;8.56;83.46
70323;BME280;57735;56.264;43.898;2023-09-07T03:09:32;100543.53;;;8.56;83.42
70323;BME280;57735;56.264;43.898;2023-09-07T03:12:03;100545.22;;;8.57;83.67
70323;BME280;57735;56.264;43.898;2023-09-07T03:14:34;100547.63;;;8.60;83.37
70323;BME280;57735;56.264;43.898;2023-09-07T03:17:05;100545.78;;;8.60;83.16
70323;BME280;57735;56.264;43.898;2023-09-07T03:19:36;100544.69;;;8.63;82.94
70323;BME280;57735;56.264;43.898;2023-09-07T03:22:08;100547.47;;;8.61;82.68
70323;BME280;57735;56.264;43.898;2023-09-07T03:24:40;100546.25;;;8.65;82.87
70323;BME280;57735;56.264;43.898;2023-09-07T03:27:11;100542.47;;;8.68;82.44
70323;BME280;57735;56.264;43.898;2023-09-07T03:29:43;100539.69;;;8.69;82.50
70323;BME280;57735;56.264;43.898;2023-09-07T03:32:14;100549.03;;;8.73;82.28
70323;BME280;57735;56.264;43.898;2023-09-07T03:34:45;100553.38;;;8.74;81.77
70323;BME280;57735;56.264;43.898;2023-09-07T03:37:18;100546.09;;;8.77;81.73
70323;BME280;57735;56.264;43.898;2023-09-07T03:39:50;100552.84;;;8.81;81.72
70323;BME280;57735;56.264;43.898;2023-09-07T03:42:21;100550.88;;;8.83;81.34
70323;BME280;57735;56.264;43.898;2023-09-07T03:44:55;100547.25;;;8.84;80.96
70323;BME280;57735;56.264;43.898;2023-09-07T03:47:26;100557.59;;;8.87;80.84
70323;BME280;57735;56.264;43.898;2023-09-07T03:49:59;100557.59;;;8.87;80.48
70323;BME280;57735;56.264;43.898;2023-09-07T03:52:31;100561.94;;;8.88;80.34
70323;BME280;57735;56.264;43.898;2023-09-07T03:55:02;100560.66;;;8.92;80.51
70323;BME280;57735;56.264;43.898;2023-09-07T03:57:34;100562.78;;;8.98;80.10
70323;BME280;57735;56.264;43.898;2023-09-07T04:00:06;100555.38;;;9.01;79.85
70323;BME280;57735;56.264;43.898;2023-09-07T04:02:38;100566.53;;;9.05;79.66
70323;BME280;57735;56.264;43.898;2023-09-07T04:05:09;100562.50;;;9.10;79.60
70323;BME280;57735;56.264;43.898;2023-09-07T04:07:41;100567.81;;;9.10;79.26
70323;BME280;57735;56.264;43.898;2023-09-07T04:10:12;100572.88;;;9.14;79.21
70323;BME280;57735;56.264;43.898;2023-09-07T04:12:43;100569.94;;;9.17;79.10
70323;BME280;57735;56.264;43.898;2023-09-07T04:15:14;100568.50;;;9.22;79.63
70323;BME280;57735;56.264;43.898;2023-09-07T04:17:45;100575.50;;;9.23;79.11
70323;BME280;57735;56.264;43.898;2023-09-07T04:20:16;100577.19;;;9.24;79.22
70323;BME280;57735;56.264;43.898;2023-09-07T04:22:47;100576.91;;;9.27;78.85
70323;BME280;57735;56.264;43.898;2023-09-07T04:25:19;100586.28;;;9.22;78.47
70323;BME280;57735;56.264;43.898;2023-09-07T04:27:50;100574.13;;;9.19;78.67
70323;BME280;57735;56.264;43.898;2023-09-07T04:30:24;100592.19;;;9.16;78.58
70323;BME280;57735;56.264;43.898;2023-09-07T04:32:54;100594.00;;;9.15;79.08
70323;BME280;57735;56.264;43.898;2023-09-07T04:35:29;100603.81;;;9.15;79.04
70323;BME280;57735;56.264;43.898;2023-09-07T04:38:01;100601.97;;;9.15;79.04
70323;BME280;57735;56.264;43.898;2023-09-07T04:40:31;100606.47;;;9.15;79.34
70323;BME280;57735;56.264;43.898;2023-09-07T04:43:02;100609.69;;;9.18;79.21
70323;BME280;57735;56.264;43.898;2023-09-07T04:45:33;100606.59;;;9.23;79.27
70323;BME280;57735;56.264;43.898;2023-09-07T04:48:04;100612.91;;;9.31;79.10
70323;BME280;57735;56.264;43.898;2023-09-07T04:50:35;100602.53;;;9.48;78.62
70323;BME280;57735;56.264;43.898;2023-09-07T04:53:06;100603.78;;;9.63;78.25
70323;BME280;57735;56.264;43.898;2023-09-07T04:55:37;100611.31;;;9.77;77.85
70323;BME280;57735;56.264;43.898;2023-09-07T04:58:09;100610.50;;;9.86;77.32
70323;BME280;57735;56.264;43.898;2023-09-07T05:00:42;100605.81;;;9.98;77.00
70323;BME280;57735;56.264;43.898;2023-09-07T05:03:13;100612.25;;;10.05;76.21
70323;BME280;57735;56.264;43.898;2023-09-07T05:05:51;100603.81;;;10.09;75.93
70323;BME280;57735;56.264;43.898;2023-09-07T05:08:23;100612.53;;;10.21;75.82
70323;BME280;57735;56.264;43.898;2023-09-07T05:10:56;100618.25;;;10.26;75.82
70323;BME280;57735;56.264;43.898;2023-09-07T05:13:32;100620.31;;;10.32;75.23
70323;BME280;57735;56.264;43.898;2023-09-07T05:16:03;100621.31;;;10.31;74.97
70323;BME280;57735;56.264;43.898;2023-09-07T05:18:35;100622.16;;;10.32;75.21
70323;BME280;57735;56.264;43.898;2023-09-07T05:21:15;100631.13;;;10.31;74.85
70323;BME280;57735;56.264;43.898;2023-09-07T05:23:46;100626.22;;;10.36;75.01
70323;BME280;57735;56.264;43.898;2023-09-07T05:26:25;100626.44;;;10.42;74.35
70323;BME280;57735;56.264;43.898;2023-09-07T05:28:56;100622.66;;;10.45;74.46
70323;BME280;57735;56.264;43.898;2023-09-07T05:31:27;100637.56;;;10.38;74.28
70323;BME280;57735;56.264;43.898;2023-09-07T05:34:00;100627.47;;;10.32;74.72
70323;BME280;57735;56.264;43.898;2023-09-07T05:36:31;100624.25;;;10.38;75.02
70323;BME280;57735;56.264;43.898;2023-09-07T05:39:02;100628.59;;;10.39;75.10
70323;BME280;57735;56.264;43.898;2023-09-07T05:41:34;100636.16;;;10.34;76.23
70323;BME280;57735;56.264;43.898;2023-09-07T05:44:05;100639.69;;;10.25;77.19
70323;BME280;57735;56.264;43.898;2023-09-07T05:46:35;100642.97;;;10.19;77.62
70323;BME280;57735;56.264;43.898;2023-09-07T05:49:06;100643.91;;;10.08;78.22
70323;BME280;57735;56.264;43.898;2023-09-07T05:51:37;100645.34;;;10.02;79.13
70323;BME280;57735;56.264;43.898;2023-09-07T05:54:08;100641.97;;;10.20;78.87
70323;BME280;57735;56.264;43.898;2023-09-07T05:56:39;100638.72;;;10.26;78.70
70323;BME280;57735;56.264;43.898;2023-09-07T05:59:09;100632.81;;;10.32;78.61
70323;BME280;57735;56.264;43.898;2023-09-07T06:01:41;100640.22;;;10.38;78.85
70323;BME280;57735;56.264;43.898;2023-09-07T06:04:12;100637.56;;;10.38;79.04
70323;BME280;57735;56.264;43.898;2023-09-07T06:06:43;100631.91;;;10.41;78.77
70323;BME280;57735;56.264;43.898;2023-09-07T06:09:14;100642.28;;;10.44;78.72
70323;BME280;57735;56.264;43.898;2023-09-07T06:11:45;100642.59;;;10.41;78.44
70323;BME280;57735;56.264;43.898;2023-09-07T06:14:15;100641.38;;;10.35;78.65
70323;BME280;57735;56.264;43.898;2023-09-07T06:16:49;100638.13;;;10.32;78.73
70323;BME280;57735;56.264;43.898;2023-09-07T06:19:22;100638.00;;;10.24;78.75
70323;BME280;57735;56.264;43.898;2023-09-07T06:21:53;100638.72;;;10.26;79.09
70323;BME280;57735;56.264;43.898;2023-09-07T06:24:24;100638.84;;;10.34;79.05
70323;BME280;57735;56.264;43.898;2023-09-07T06:26:57;100640.38;;;10.36;79.24
70323;BME280;57735;56.264;43.898;2023-09-07T06:29:27;100645.88;;;10.25;79.72
70323;BME280;57735;56.264;43.898;2023-09-07T06:31:58;100644.50;;;10.02;81.41
70323;BME280;57735;56.264;43.898;2023-09-07T06:34:29;100649.31;;;9.79;83.38
70323;BME280;57735;56.264;43.898;2023-09-07T06:37:02;100653.50;;;9.62;85.21
70323;BME280;57735;56.264;43.898;2023-09-07T06:39:34;100646.50;;;9.61;85.89
70323;BME280;57735;56.264;43.898;2023-09-07T06:42:05;100652.38;;;9.74;86.29
70323;BME280;57735;56.264;43.898;2023-09-07T06:44:37;100657.72;;;9.84;86.51
70323;BME280;57735;56.264;43.898;2023-09-07T06:47:08;100652.34;;;9.94;86.56
70323;BME280;57735;56.264;43.898;2023-09-07T06:49:41;100651.38;;;10.04;85.53
70323;BME280;57735;56.264;43.898;2023-09-07T06:52:15;100648.97;;;10.21;85.04
70323;BME280;57735;56.264;43.898;2023-09-07T06:54:46;100656.38;;;10.27;84.30
70323;BME280;57735;56.264;43.898;2023-09-07T06:57:17;100659.47;;;10.22;84.11
70323;BME280;57735;56.264;43.898;2023-09-07T06:59:48;100664.28;;;10.19;84.47
70323;BME280;57735;56.264;43.898;2023-09-07T07:02:19;100653.47;;;10.20;84.70
70323;BME280;57735;56.264;43.898;2023-09-07T07:04:50;100656.53;;;10.15;85.43
70323;BME280;57735;56.264;43.898;2023-09-07T07:07:22;100653.72;;;10.17;85.55
70323;BME280;57735;56.264;43.898;2023-09-07T07:09:52;100658.22;;;10.17;85.82
70323;BME280;57735;56.264;43.898;2023-09-07T07:12:26;100666.19;;;10.17;85.77
70323;BME280;57735;56.264;43.898;2023-09-07T07:14:57;100668.44;;;10.31;85.43
70323;BME280;57735;56.264;43.898;2023-09-07T07:17:28;100662.44;;;10.56;84.29
70323;BME280;57735;56.264;43.898;2023-09-07T07:19:58;100663.06;;;10.77;84.19
70323;BME280;57735;56.264;43.898;2023-09-07T07:22:29;100669.28;;;10.68;83.29
70323;BME280;57735;56.264;43.898;2023-09-07T07:25:00;100667.88;;;10.64;83.65
70323;BME280;57735;56.264;43.898;2023-09-07T07:27:36;100673.06;;;10.66;83.86
70323;BME280;57735;56.264;43.898;2023-09-07T07:30:09;100667.09;;;10.81;83.68
70323;BME280;57735;56.264;43.898;2023-09-07T07:32:40;100665.63;;;10.97;83.02
70323;BME280;57735;56.264;43.898;2023-09-07T07:35:11;100670.25;;;10.95;82.16
70323;BME280;57735;56.264;43.898;2023-09-07T07:37:42;100672.63;;;10.98;81.47
70323;BME280;57735;56.264;43.898;2023-09-07T07:40:14;100672.28;;;11.10;81.36
70323;BME280;57735;56.264;43.898;2023-09-07T07:42:47;100671.31;;;11.29;80.27
70323;BME280;57735;56.264;43.898;2023-09-07T07:45:18;100677.91;;;11.52;79.43
70323;BME280;57735;56.264;43.898;2023-09-07T07:47:51;100671.47;;;11.63;78.47
70323;BME280;57735;56.264;43.898;2023-09-07T07:50:23;100678.66;;;11.63;77.78
70323;BME280;57735;56.264;43.898;2023-09-07T07:52:54;100676.22;;;11.51;77.37
70323;BME280;57735;56.264;43.898;2023-09-07T07:55:27;100679.44;;;11.55;76.61
70323;BME280;57735;56.264;43.898;2023-09-07T07:58:03;100684.00;;;11.63;76.12
70323;BME280;57735;56.264;43.898;2023-09-07T08:00:35;100685.06;;;11.70;75.97
70323;BME280;57735;56.264;43.898;2023-09-07T08:03:06;100699.63;;;11.75;75.83
70323;BME280;57735;56.264;43.898;2023-09-07T08:05:37;100695.22;;;11.84;75.58
70323;BME280;57735;56.264;43.898;2023-09-07T08:08:10;100690.63;;;11.94;75.29
70323;BME280;57735;56.264;43.898;2023-09-07T08:10:41;100706.59;;;12.04;75.56
70323;BME280;57735;56.264;43.898;2023-09-07T08:13:12;100694.41;;;12.09;74.16
70323;BME280;57735;56.264;43.898;2023-09-07T08:15:44;100700.69;;;12.18;74.05
70323;BME280;57735;56.264;43.898;2023-09-07T08:18:14;100703.25;;;12.28;73.19
70323;BME280;57735;56.264;43.898;2023-09-07T08:20:45;100706.19;;;12.42;72.76
70323;BME280;57735;56.264;43.898;2023-09-07T08:23:16;100696.25;;;12.61;72.07
70323;BME280;57735;56.264;43.898;2023-09-07T08:25:47;100692.03;;;12.84;70.40
70323;BME280;57735;56.264;43.898;2023-09-07T08:28:18;100689.59;;;12.99;66.72
70323;BME280;57735;56.264;43.898;2023-09-07T08:30:50;100689.78;;;13.05;64.96
70323;BME280;57735;56.264;43.898;2023-09-07T08:33:24;100685.94;;;13.08;64.18
70323;BME280;57735;56.264;43.898;2023-09-07T08:35:59;100689.22;;;13.44;62.74
70323;BME280;57735;56.264;43.898;2023-09-07T08:38:32;100687.28;;;13.70;59.56
70323;BME280;57735;56.264;43.898;2023-09-07T08:41:02;100688.28;;;13.77;57.40
70323;BME280;57735;56.264;43.898;2023-09-07T08:43:45;100695.47;;;13.77;56.65
70323;BME280;57735;56.264;43.898;2023-09-07T08:46:20;100690.28;;;13.67;57.14
70323;BME280;57735;56.264;43.898;2023-09-07T08:48:52;100695.78;;;13.57;57.69
70323;BME280;57735;56.264;43.898;2023-09-07T08:51:26;100695.09;;;13.47;57.97
70323;BME280;57735;56.264;43.898;2023-09-07T08:54:00;100701.59;;;13.28;58.46
70323;BME280;57735;56.264;43.898;2023-09-07T08:56:32;100715.13;;;13.19;58.89
70323;BME280;57735;56.264;43.898;2023-09-07T08:59:05;100708.53;;;13.13;59.08
70323;BME280;57735;56.264;43.898;2023-09-07T09:01:37;100707.63;;;13.31;59.49
70323;BME280;57735;56.264;43.898;2023-09-07T09:04:11;100702.50;;;13.53;59.69
70323;BME280;57735;56.264;43.898;2023-09-07T09:06:42;100705.72;;;13.73;59.33
70323;BME280;57735;56.264;43.898;2023-09-07T09:09:24;100700.00;;;13.76;57.07
70323;BME280;57735;56.264;43.898;2023-09-07T09:12:05;100705.19;;;13.78;57.37
70323;BME280;57735;56.264;43.898;2023-09-07T09:14:42;100701.84;;;14.16;55.93
70323;BME280;57735;56.264;43.898;2023-09-07T09:17:17;100697.63;;;14.30;54.49
70323;BME280;57735;56.264;43.898;2023-09-07T09:19:48;100701.78;;;14.65;53.16
70323;BME280;57735;56.264;43.898;2023-09-07T09:22:18;100702.13;;;14.62;53.94
70323;BME280;57735;56.264;43.898;2023-09-07T09:24:50;100704.13;;;14.60;54.39
70323;BME280;57735;56.264;43.898;2023-09-07T09:27:21;100721.94;;;14.53;55.36
70323;BME280;57735;56.264;43.898;2023-09-07T09:29:52;100722.28;;;14.25;54.66
70323;BME280;57735;56.264;43.898;2023-09-07T09:32:22;100732.00;;;14.02;54.32
70323;BME280;57735;56.264;43.898;2023-09-07T09:34:54;100741.88;;;13.93;55.02
70323;BME280;57735;56.264;43.898;2023-09-07T09:37:25;100737.38;;;13.86;54.58
70323;BME280;57735;56.264;43.898;2023-09-07T09:39:58;100746.09;;;13.88;55.55
70323;BME280;57735;56.264;43.898;2023-09-07T09:42:31;100741.56;;;13.88;55.61
70323;BME280;57735;56.264;43.898;2023-09-07T09:45:03;100749.44;;;13.98;55.88
70323;BME280;57735;56.264;43.898;2023-09-07T09:47:41;100740.88;;;14.11;55.93
70323;BME280;57735;56.264;43.898;2023-09-07T09:50:12;100743.91;;;14.16;54.67
70323;BME280;57735;56.264;43.898;2023-09-07T09:52:45;100748.78;;;14.20;54.08
70323;BME280;57735;56.264;43.898;2023-09-07T09:55:16;100743.72;;;14.25;54.71
70323;BME280;57735;56.264;43.898;2023-09-07T09:57:49;100744.41;;;14.27;54.88
70323;BME280;57735;56.264;43.898;2023-09-07T10:00:20;100750.09;;;14.16;54.86
70323;BME280;57735;56.264;43.898;2023-09-07T10:03:13;100764.50;;;13.83;54.68
70323;BME280;57735;56.264;43.898;2023-09-07T10:05:46;100763.78;;;13.65;55.80
70323;BME280;57735;56.264;43.898;2023-09-07T10:08:18;100760.84;;;13.34;56.19
70323;BME280;57735;56.264;43.898;2023-09-07T10:10:53;100771.91;;;13.05;60.49
70323;BME280;57735;56.264;43.898;2023-09-07T10:13:34;100777.59;;;12.50;64.63
70323;BME280;57735;56.264;43.898;2023-09-07T10:16:06;100797.50;;;12.12;66.28
70323;BME280;57735;56.264;43.898;2023-09-07T10:18:42;100790.31;;;11.95;68.87
70323;BME280;57735;56.264;43.898;2023-09-07T10:21:15;100786.44;;;11.89;69.06
70323;BME280;57735;56.264;43.898;2023-09-07T10:23:45;100787.19;;;11.99;68.95
70323;BME280;57735;56.264;43.898;2023-09-07T10:26:18;100786.34;;;12.16;68.27
70323;BME280;57735;56.264;43.898;2023-09-07T10:28:59;100778.59;;;12.49;66.87
70323;BME280;57735;56.264;43.898;2023-09-07T10:31:34;100786.25;;;12.96;64.02
70323;BME280;57735;56.264;43.898;2023-09-07T10:34:09;100782.66;;;13.47;63.28
70323;BME280;57735;56.264;43.898;2023-09-07T10:36:44;100779.16;;;13.54;58.58
70323;BME280;57735;56.264;43.898;2023-09-07T10:39:20;100779.84;;;13.56;58.62
70323;BME280;57735;56.264;43.898;2023-09-07T10:41:53;100788.38;;;13.52;58.84
70323;BME280;57735;56.264;43.898;2023-09-07T10:44:27;100777.84;;;13.67;58.13
70323;BME280;57735;56.264;43.898;2023-09-07T10:46:59;100781.25;;;13.85;57.25
70323;BME280;57735;56.264;43.898;2023-09-07T10:49:30;100773.22;;;14.01;57.59
70323;BME280;57735;56.264;43.898;2023-09-07T10:52:02;100780.06;;;13.95;56.19
70323;BME280;57735;56.264;43.898;2023-09-07T10:54:35;100775.75;;;14.03;55.50
70323;BME280;57735;56.264;43.898;2023-09-07T10:57:10;100787.00;;;14.22;54.98
70323;BME280;57735;56.264;43.898;2023-09-07T10:59:45;100785.66;;;14.43;54.33
70323;BME280;57735;56.264;43.898;2023-09-07T11:02:19;100784.66;;;14.44;54.67
70323;BME280;57735;56.264;43.898;2023-09-07T11:04:49;100783.63;;;14.37;53.96
70323;BME280;57735;56.264;43.898;2023-09-07T11:07:20;100782.47;;;14.39;53.95
70323;BME280;57735;56.264;43.898;2023-09-07T11:09:51;100780.59;;;14.31;53.37
70323;BME280;57735;56.264;43.898;2023-09-07T11:12:22;100791.84;;;14.43;53.59
70323;BME280;57735;56.264;43.898;2023-09-07T11:14:53;100794.03;;;14.48;53.00
70323;BME280;57735;56.264;43.898;2023-09-07T11:17:28;100783.44;;;14.30;53.48
70323;BME280;57735;56.264;43.898;2023-09-07T11:20:03;100787.47;;;14.18;55.61
70323;BME280;57735;56.264;43.898;2023-09-07T11:22:36;100795.84;;;14.15;55.15
70323;BME280;57735;56.264;43.898;2023-09-07T11:25:08;100794.50;;;14.27;55.15
70323;BME280;57735;56.264;43.898;2023-09-07T11:27:39;100795.88;;;14.47;54.27
70323;BME280;57735;56.264;43.898;2023-09-07T11:30:11;100798.72;;;14.46;53.69
70323;BME280;57735;56.264;43.898;2023-09-07T11:32:41;100784.28;;;14.30;54.60
70323;BME280;57735;56.264;43.898;2023-09-07T11:35:13;100791.66;;;14.12;53.02
70323;BME280;57735;56.264;43.898;2023-09-07T11:37:51;100789.31;;;14.01;53.85
70323;BME280;57735;56.264;43.898;2023-09-07T11:40:22;100787.31;;;14.19;53.97
70323;BME280;57735;56.264;43.898;2023-09-07T11:42:54;100788.34;;;14.43;53.99
70323;BME280;57735;56.264;43.898;2023-09-07T11:45:26;100792.69;;;14.44;53.77
70323;BME280;57735;56.264;43.898;2023-09-07T11:47:57;100789.66;;;14.39;54.59
70323;BME280;57735;56.264;43.898;2023-09-07T11:50:29;100795.50;;;14.10;52.79
70323;BME280;57735;56.264;43.898;2023-09-07T11:53:06;100794.81;;;13.83;54.19
70323;BME280;57735;56.264;43.898;2023-09-07T11:55:37;100808.00;;;13.69;56.82
70323;BME280;57735;56.264;43.898;2023-09-07T11:58:10;100797.56;;;13.57;57.29
70323;BME280;57735;56.264;43.898;2023-09-07T12:00:41;100801.66;;;13.70;56.72
70323;BME280;57735;56.264;43.898;2023-09-07T12:03:12;100799.13;;;13.76;57.23
70323;BME280;57735;56.264;43.898;2023-09-07T12:05:43;100796.94;;;13.63;57.50
70323;BME280;57735;56.264;43.898;2023-09-07T12:08:15;100799.09;;;13.52;57.74
70323;BME280;57735;56.264;43.898;2023-09-07T12:10:46;100800.88;;;13.43;58.42
70323;BME280;57735;56.264;43.898;2023-09-07T12:13:17;100793.16;;;13.32;59.50
70323;BME280;57735;56.264;43.898;2023-09-07T12:15:48;100806.47;;;13.24;59.69
70323;BME280;57735;56.264;43.898;2023-09-07T12:18:18;100794.91;;;13.15;59.98
70323;BME280;57735;56.264;43.898;2023-09-07T12:20:49;100799.84;;;13.36;59.25
70323;BME280;57735;56.264;43.898;2023-09-07T12:23:23;100793.38;;;13.47;58.48
70323;BME280;57735;56.264;43.898;2023-09-07T12:25:54;100790.56;;;13.56;58.52
70323;BME280;57735;56.264;43.898;2023-09-07T12:28:26;100792.59;;;13.71;57.61
70323;BME280;57735;56.264;43.898;2023-09-07T12:30:59;100772.88;;;13.96;57.36
70323;BME280;57735;56.264;43.898;2023-09-07T12:33:30;100771.22;;;14.19;56.07
70323;BME280;57735;56.264;43.898;2023-09-07T12:36:03;100775.59;;;14.45;54.99
70323;BME280;57735;56.264;43.898;2023-09-07T12:38:34;100772.84;;;14.85;52.86
70323;BME280;57735;56.264;43.898;2023-09-07T12:41:05;100779.13;;;15.17;49.21
70323;BME280;57735;56.264;43.898;2023-09-07T12:43:39;100769.84;;;15.66;48.45
70323;BME280;57735;56.264;43.898;2023-09-07T12:46:09;100784.31;;;15.65;44.64
70323;BME280;57735;56.264;43.898;2023-09-07T12:48:40;100768.34;;;15.25;46.26
70323;BME280;57735;56.264;43.898;2023-09-07T12:51:11;100771.56;;;15.20;47.65
70323;BME280;57735;56.264;43.898;2023-09-07T12:53:45;100779.47;;;15.53;46.45
70323;BME280;57735;56.264;43.898;2023-09-07T12:56:15;100775.28;;;15.11;46.94
70323;BME280;57735;56.264;43.898;2023-09-07T12:58:48;100769.25;;;15.48;47.33
70323;BME280;57735;56.264;43.898;2023-09-07T13:01:23;100771.28;;;15.77;46.57
70323;BME280;57735;56.264;43.898;2023-09-07T13:03:53;100770.91;;;15.88;46.05
70323;BME280;57735;56.264;43.898;2023-09-07T13:06:24;100774.22;;;15.67;45.78
70323;BME280;57735;56.264;43.898;2023-09-07T13:09:07;100759.34;;;15.57;45.43